sensor_id;sensor_type;location;lat;lon;timestamp;P1;durP1;ratioP1;P2;durP2;ratioP2
545;SDS011;259;53.304;9.816;2024-02-28T00:02:10;3.47;;;3.27;;
545;SDS011;259;53.304;9.816;2024-02-28T00:04:36;3.53;;;3.23;;
545;SDS011;259;53.304;9.816;2024-02-28T00:07:04;3.43;;;3.23;;
545;SDS011;259;53.304;9.816;2024-02-28T00:09:30;2.83;;;2.73;;
545;SDS011;259;53.304;9.816;2024-02-28T00:11:56;3.50;;;3.30;;
545;SDS011;259;53.304;9.816;2024-02-28T00:14:22;3.60;;;3.40;;
545;SDS011;259;53.304;9.816;2024-02-28T00:16:47;3.80;;;3.60;;
545;SDS011;259;53.304;9.816;2024-02-28T00:19:13;3.33;;;3.10;;
545;SDS011;259;53.304;9.816;2024-02-28T00:21:39;3.00;;;2.80;;
545;SDS011;259;53.304;9.816;2024-02-28T00:24:06;2.93;;;2.77;;
545;SDS011;259;53.304;9.816;2024-02-28T00:26:32;3.47;;;3.27;;
545;SDS011;259;53.304;9.816;2024-02-28T00:28:58;3.07;;;2.93;;
545;SDS011;259;53.304;9.816;2024-02-28T00:31:23;3.77;;;3.57;;
545;SDS011;259;53.304;9.816;2024-02-28T00:33:50;3.33;;;3.13;;
545;SDS011;259;53.304;9.816;2024-02-28T00:36:15;3.97;;;3.77;;
545;SDS011;259;53.304;9.816;2024-02-28T00:38:41;3.40;;;3.20;;
545;SDS011;259;53.304;9.816;2024-02-28T00:41:07;3.67;;;3.47;;
545;SDS011;259;53.304;9.816;2024-02-28T00:43:33;3.47;;;3.27;;
545;SDS011;259;53.304;9.816;2024-02-28T00:45:59;3.23;;;3.03;;
545;SDS011;259;53.304;9.816;2024-02-28T00:48:25;3.60;;;3.40;;
545;SDS011;259;53.304;9.816;2024-02-28T00:50:51;3.33;;;3.13;;
545;SDS011;259;53.304;9.816;2024-02-28T00:53:18;3.73;;;3.53;;
545;SDS011;259;53.304;9.816;2024-02-28T00:55:45;4.00;;;3.70;;
545;SDS011;259;53.304;9.816;2024-02-28T00:58:10;3.53;;;3.33;;
545;SDS011;259;53.304;9.816;2024-02-28T01:00:36;3.67;;;3.47;;
545;SDS011;259;53.304;9.816;2024-02-28T01:03:02;3.63;;;3.40;;
545;SDS011;259;53.304;9.816;2024-02-28T01:05:33;3.23;;;3.03;;
545;SDS011;259;53.304;9.816;2024-02-28T01:07:59;3.43;;;3.23;;
545;SDS011;259;53.304;9.816;2024-02-28T01:10:25;3.27;;;3.07;;
545;SDS011;259;53.304;9.816;2024-02-28T01:12:51;3.43;;;3.23;;
545;SDS011;259;53.304;9.816;2024-02-28T01:15:17;3.50;;;3.30;;
545;SDS011;259;53.304;9.816;2024-02-28T01:17:43;2.80;;;2.70;;
545;SDS011;259;53.304;9.816;2024-02-28T01:20:09;3.83;;;3.63;;
545;SDS011;259;53.304;9.816;2024-02-28T01:22:35;3.53;;;3.33;;
545;SDS011;259;53.304;9.816;2024-02-28T01:25:02;4.00;;;3.70;;
545;SDS011;259;53.304;9.816;2024-02-28T01:27:28;3.40;;;3.20;;
545;SDS011;259;53.304;9.816;2024-02-28T01:29:54;3.33;;;3.13;;
545;SDS011;259;53.304;9.816;2024-02-28T01:32:19;3.97;;;3.70;;
545;SDS011;259;53.304;9.816;2024-02-28T01:34:45;3.53;;;3.33;;
545;SDS011;259;53.304;9.816;2024-02-28T01:37:11;3.53;;;3.33;;
545;SDS011;259;53.304;9.816;2024-02-28T01:39:37;3.40;;;3.20;;
545;SDS011;259;53.304;9.816;2024-02-28T01:42:03;3.90;;;3.63;;
545;SDS011;259;53.304;9.816;2024-02-28T01:44:29;4.00;;;3.70;;
545;SDS011;259;53.304;9.816;2024-02-28T01:46:55;3.40;;;3.20;;
545;SDS011;259;53.304;9.816;2024-02-28T01:49:23;3.80;;;3.60;;
545;SDS011;259;53.304;9.816;2024-02-28T01:51:49;3.90;;;3.60;;
545;SDS011;259;53.304;9.816;2024-02-28T01:54:18;3.97;;;3.67;;
545;SDS011;259;53.304;9.816;2024-02-28T01:56:45;4.53;;;4.20;;
545;SDS011;259;53.304;9.816;2024-02-28T01:59:12;3.63;;;3.43;;
545;SDS011;259;53.304;9.816;2024-02-28T02:01:38;3.53;;;3.33;;
545;SDS011;259;53.304;9.816;2024-02-28T02:04:04;3.87;;;3.57;;
545;SDS011;259;53.304;9.816;2024-02-28T02:06:30;3.70;;;3.50;;
545;SDS011;259;53.304;9.816;2024-02-28T02:08:57;3.87;;;3.63;;
545;SDS011;259;53.304;9.816;2024-02-28T02:11:23;3.80;;;3.60;;
545;SDS011;259;53.304;9.816;2024-02-28T02:13:50;3.90;;;3.70;;
545;SDS011;259;53.304;9.816;2024-02-28T02:16:17;4.00;;;3.70;;
545;SDS011;259;53.304;9.816;2024-02-28T02:18:44;3.40;;;3.20;;
545;SDS011;259;53.304;9.816;2024-02-28T02:21:14;3.37;;;3.17;;
545;SDS011;259;53.304;9.816;2024-02-28T02:23:43;3.67;;;3.47;;
545;SDS011;259;53.304;9.816;2024-02-28T02:26:09;3.73;;;3.43;;
545;SDS011;259;53.304;9.816;2024-02-28T02:28:35;3.67;;;3.40;;
545;SDS011;259;53.304;9.816;2024-02-28T02:31:00;3.47;;;3.27;;
545;SDS011;259;53.304;9.816;2024-02-28T02:33:26;4.33;;;4.03;;
545;SDS011;259;53.304;9.816;2024-02-28T02:35:53;3.67;;;3.47;;
545;SDS011;259;53.304;9.816;2024-02-28T02:38:18;3.87;;;3.67;;
545;SDS011;259;53.304;9.816;2024-02-28T02:40:48;3.40;;;3.20;;
545;SDS011;259;53.304;9.816;2024-02-28T02:43:17;3.80;;;3.57;;
545;SDS011;259;53.304;9.816;2024-02-28T02:45:43;4.20;;;3.90;;
545;SDS011;259;53.304;9.816;2024-02-28T02:48:09;3.43;;;3.23;;
545;SDS011;259;53.304;9.816;2024-02-28T02:50:36;3.87;;;3.67;;
545;SDS011;259;53.304;9.816;2024-02-28T02:53:02;3.30;;;3.10;;
545;SDS011;259;53.304;9.816;2024-02-28T02:55:28;3.47;;;3.27;;
545;SDS011;259;53.304;9.816;2024-02-28T02:57:54;3.90;;;3.60;;
545;SDS011;259;53.304;9.816;2024-02-28T03:00:20;3.80;;;3.50;;
545;SDS011;259;53.304;9.816;2024-02-28T03:02:47;3.80;;;3.50;;
545;SDS011;259;53.304;9.816;2024-02-28T03:05:13;3.40;;;3.20;;
545;SDS011;259;53.304;9.816;2024-02-28T03:07:38;3.90;;;3.60;;
545;SDS011;259;53.304;9.816;2024-02-28T03:10:04;3.40;;;3.20;;
545;SDS011;259;53.304;9.816;2024-02-28T03:12:31;3.90;;;3.60;;
545;SDS011;259;53.304;9.816;2024-02-28T03:14:57;3.90;;;3.70;;
545;SDS011;259;53.304;9.816;2024-02-28T03:17:22;3.60;;;3.40;;
545;SDS011;259;53.304;9.816;2024-02-28T03:19:48;4.27;;;3.97;;
545;SDS011;259;53.304;9.816;2024-02-28T03:22:14;3.50;;;3.30;;
545;SDS011;259;53.304;9.816;2024-02-28T03:24:40;3.13;;;2.93;;
545;SDS011;259;53.304;9.816;2024-02-28T03:27:06;3.83;;;3.57;;
545;SDS011;259;53.304;9.816;2024-02-28T03:29:31;3.60;;;3.40;;
545;SDS011;259;53.304;9.816;2024-02-28T03:31:58;3.83;;;3.60;;
545;SDS011;259;53.304;9.816;2024-02-28T03:34:23;3.50;;;3.20;;
545;SDS011;259;53.304;9.816;2024-02-28T03:36:49;3.30;;;3.10;;
545;SDS011;259;53.304;9.816;2024-02-28T03:39:16;3.47;;;3.17;;
545;SDS011;259;53.304;9.816;2024-02-28T03:41:41;3.60;;;3.40;;
545;SDS011;259;53.304;9.816;2024-02-28T03:44:07;4.00;;;3.70;;
545;SDS011;259;53.304;9.816;2024-02-28T03:46:33;3.20;;;3.00;;
545;SDS011;259;53.304;9.816;2024-02-28T03:48:59;3.50;;;3.30;;
545;SDS011;259;53.304;9.816;2024-02-28T03:51:24;3.37;;;3.17;;
545;SDS011;259;53.304;9.816;2024-02-28T03:53:50;3.30;;;3.00;;
545;SDS011;259;53.304;9.816;2024-02-28T03:56:25;3.57;;;3.37;;
545;SDS011;259;53.304;9.816;2024-02-28T03:58:51;3.53;;;3.33;;
545;SDS011;259;53.304;9.816;2024-02-28T04:01:18;3.10;;;2.90;;
545;SDS011;259;53.304;9.816;2024-02-28T04:03:44;3.47;;;3.17;;
545;SDS011;259;53.304;9.816;2024-02-28T04:06:12;3.53;;;3.23;;
545;SDS011;259;53.304;9.816;2024-02-28T04:08:40;3.37;;;3.17;;
545;SDS011;259;53.304;9.816;2024-02-28T04:11:07;3.27;;;3.07;;
545;SDS011;259;53.304;9.816;2024-02-28T04:13:32;3.63;;;3.33;;
545;SDS011;259;53.304;9.816;2024-02-28T04:15:58;3.33;;;3.13;;
545;SDS011;259;53.304;9.816;2024-02-28T04:18:24;3.00;;;2.80;;
545;SDS011;259;53.304;9.816;2024-02-28T04:20:50;3.60;;;3.40;;
545;SDS011;259;53.304;9.816;2024-02-28T04:23:15;3.03;;;2.83;;
545;SDS011;259;53.304;9.816;2024-02-28T04:25:42;3.40;;;3.20;;
545;SDS011;259;53.304;9.816;2024-02-28T04:28:07;3.50;;;3.20;;
545;SDS011;259;53.304;9.816;2024-02-28T04:30:36;2.97;;;2.77;;
545;SDS011;259;53.304;9.816;2024-02-28T04:33:01;3.83;;;3.53;;
545;SDS011;259;53.304;9.816;2024-02-28T04:35:27;3.27;;;3.07;;
545;SDS011;259;53.304;9.816;2024-02-28T04:37:53;3.80;;;3.50;;
545;SDS011;259;53.304;9.816;2024-02-28T04:40:18;3.17;;;2.97;;
545;SDS011;259;53.304;9.816;2024-02-28T04:42:44;2.83;;;2.63;;
545;SDS011;259;53.304;9.816;2024-02-28T04:45:10;2.80;;;2.60;;
545;SDS011;259;53.304;9.816;2024-02-28T04:47:36;2.87;;;2.67;;
545;SDS011;259;53.304;9.816;2024-02-28T04:50:03;3.80;;;3.60;;
545;SDS011;259;53.304;9.816;2024-02-28T04:52:30;3.53;;;3.33;;
545;SDS011;259;53.304;9.816;2024-02-28T04:54:59;3.03;;;2.83;;
545;SDS011;259;53.304;9.816;2024-02-28T04:57:25;2.97;;;2.77;;
545;SDS011;259;53.304;9.816;2024-02-28T04:59:51;3.53;;;3.33;;
545;SDS011;259;53.304;9.816;2024-02-28T05:02:17;3.53;;;3.33;;
545;SDS011;259;53.304;9.816;2024-02-28T05:04:43;3.20;;;3.00;;
545;SDS011;259;53.304;9.816;2024-02-28T05:07:09;3.33;;;3.13;;
545;SDS011;259;53.304;9.816;2024-02-28T05:09:34;3.63;;;3.43;;
545;SDS011;259;53.304;9.816;2024-02-28T05:12:00;3.30;;;3.10;;
545;SDS011;259;53.304;9.816;2024-02-28T05:14:27;2.80;;;2.60;;
545;SDS011;259;53.304;9.816;2024-02-28T05:16:52;3.67;;;3.37;;
545;SDS011;259;53.304;9.816;2024-02-28T05:19:18;3.20;;;3.00;;
545;SDS011;259;53.304;9.816;2024-02-28T05:21:44;3.10;;;2.90;;
545;SDS011;259;53.304;9.816;2024-02-28T05:24:10;3.27;;;3.07;;
545;SDS011;259;53.304;9.816;2024-02-28T05:26:36;2.83;;;2.63;;
545;SDS011;259;53.304;9.816;2024-02-28T05:29:03;2.60;;;2.50;;
545;SDS011;259;53.304;9.816;2024-02-28T05:31:30;3.07;;;2.87;;
545;SDS011;259;53.304;9.816;2024-02-28T05:33:59;3.10;;;2.90;;
545;SDS011;259;53.304;9.816;2024-02-28T05:36:26;3.23;;;3.03;;
545;SDS011;259;53.304;9.816;2024-02-28T05:38:54;3.03;;;2.83;;
545;SDS011;259;53.304;9.816;2024-02-28T05:41:22;3.03;;;2.83;;
545;SDS011;259;53.304;9.816;2024-02-28T05:43:48;2.70;;;2.50;;
545;SDS011;259;53.304;9.816;2024-02-28T05:46:15;3.20;;;3.00;;
545;SDS011;259;53.304;9.816;2024-02-28T05:48:42;2.87;;;2.67;;
545;SDS011;259;53.304;9.816;2024-02-28T05:51:08;2.80;;;2.60;;
545;SDS011;259;53.304;9.816;2024-02-28T05:53:35;3.00;;;2.80;;
545;SDS011;259;53.304;9.816;2024-02-28T05:56:04;2.67;;;2.47;;
545;SDS011;259;53.304;9.816;2024-02-28T05:58:43;3.00;;;2.80;;
545;SDS011;259;53.304;9.816;2024-02-28T06:01:09;3.20;;;3.00;;
545;SDS011;259;53.304;9.816;2024-02-28T06:03:39;2.67;;;2.50;;
545;SDS011;259;53.304;9.816;2024-02-28T06:06:05;3.17;;;2.97;;
545;SDS011;259;53.304;9.816;2024-02-28T06:08:32;2.77;;;2.57;;
545;SDS011;259;53.304;9.816;2024-02-28T06:10:59;2.67;;;2.47;;
545;SDS011;259;53.304;9.816;2024-02-28T06:13:25;2.50;;;2.40;;
545;SDS011;259;53.304;9.816;2024-02-28T06:15:52;2.40;;;2.20;;
545;SDS011;259;53.304;9.816;2024-02-28T06:18:18;2.70;;;2.50;;
545;SDS011;259;53.304;9.816;2024-02-28T06:20:43;2.57;;;2.47;;
545;SDS011;259;53.304;9.816;2024-02-28T06:23:09;2.40;;;2.30;;
545;SDS011;259;53.304;9.816;2024-02-28T06:25:35;3.00;;;2.80;;
545;SDS011;259;53.304;9.816;2024-02-28T06:28:00;2.90;;;2.70;;
545;SDS011;259;53.304;9.816;2024-02-28T06:30:28;2.43;;;2.23;;
545;SDS011;259;53.304;9.816;2024-02-28T06:32:53;2.77;;;2.57;;
545;SDS011;259;53.304;9.816;2024-02-28T06:35:19;2.40;;;2.23;;
545;SDS011;259;53.304;9.816;2024-02-28T06:37:45;3.40;;;2.30;;
545;SDS011;259;53.304;9.816;2024-02-28T06:40:14;6.80;;;3.53;;
545;SDS011;259;53.304;9.816;2024-02-28T06:42:40;13.17;;;8.10;;
545;SDS011;259;53.304;9.816;2024-02-28T06:45:06;10.50;;;6.33;;
545;SDS011;259;53.304;9.816;2024-02-28T06:47:33;8.27;;;7.03;;
545;SDS011;259;53.304;9.816;2024-02-28T06:49:59;11.53;;;6.90;;
545;SDS011;259;53.304;9.816;2024-02-28T06:52:25;17.40;;;8.43;;
545;SDS011;259;53.304;9.816;2024-02-28T06:54:51;13.00;;;6.82;;
545;SDS011;259;53.304;9.816;2024-02-28T06:57:16;17.70;;;9.83;;
545;SDS011;259;53.304;9.816;2024-02-28T06:59:42;22.13;;;9.20;;
545;SDS011;259;53.304;9.816;2024-02-28T07:02:08;14.65;;;7.93;;
545;SDS011;259;53.304;9.816;2024-02-28T07:04:33;17.40;;;7.53;;
545;SDS011;259;53.304;9.816;2024-02-28T07:07:00;24.10;;;10.10;;
545;SDS011;259;53.304;9.816;2024-02-28T07:09:25;20.97;;;8.63;;
545;SDS011;259;53.304;9.816;2024-02-28T07:11:54;12.37;;;7.20;;
545;SDS011;259;53.304;9.816;2024-02-28T07:14:20;17.07;;;8.60;;
545;SDS011;259;53.304;9.816;2024-02-28T07:16:46;15.23;;;8.63;;
545;SDS011;259;53.304;9.816;2024-02-28T07:19:11;10.63;;;7.20;;
545;SDS011;259;53.304;9.816;2024-02-28T07:21:37;10.10;;;6.87;;
545;SDS011;259;53.304;9.816;2024-02-28T07:24:03;11.73;;;6.40;;
545;SDS011;259;53.304;9.816;2024-02-28T07:26:31;9.30;;;5.77;;
545;SDS011;259;53.304;9.816;2024-02-28T07:28:57;10.47;;;5.73;;
545;SDS011;259;53.304;9.816;2024-02-28T07:31:23;5.53;;;4.50;;
545;SDS011;259;53.304;9.816;2024-02-28T07:33:48;11.20;;;5.87;;
545;SDS011;259;53.304;9.816;2024-02-28T07:36:14;6.20;;;3.90;;
545;SDS011;259;53.304;9.816;2024-02-28T07:38:43;5.23;;;4.60;;
545;SDS011;259;53.304;9.816;2024-02-28T07:41:08;6.77;;;4.03;;
545;SDS011;259;53.304;9.816;2024-02-28T07:43:35;4.33;;;3.77;;
545;SDS011;259;53.304;9.816;2024-02-28T07:46:06;6.23;;;3.50;;
545;SDS011;259;53.304;9.816;2024-02-28T07:48:33;5.00;;;3.83;;
545;SDS011;259;53.304;9.816;2024-02-28T07:50:59;9.13;;;3.50;;
545;SDS011;259;53.304;9.816;2024-02-28T07:53:26;5.03;;;4.50;;
545;SDS011;259;53.304;9.816;2024-02-28T07:55:52;14.73;;;11.13;;
545;SDS011;259;53.304;9.816;2024-02-28T07:58:17;10.00;;;8.90;;
545;SDS011;259;53.304;9.816;2024-02-28T08:00:44;14.00;;;9.37;;
545;SDS011;259;53.304;9.816;2024-02-28T08:03:10;20.10;;;15.07;;
545;SDS011;259;53.304;9.816;2024-02-28T08:05:35;15.97;;;12.27;;
545;SDS011;259;53.304;9.816;2024-02-28T08:08:07;15.73;;;11.20;;
545;SDS011;259;53.304;9.816;2024-02-28T08:10:33;14.23;;;11.00;;
545;SDS011;259;53.304;9.816;2024-02-28T08:13:00;16.17;;;10.43;;
545;SDS011;259;53.304;9.816;2024-02-28T08:15:26;13.40;;;10.03;;
545;SDS011;259;53.304;9.816;2024-02-28T08:17:52;11.43;;;10.13;;
545;SDS011;259;53.304;9.816;2024-02-28T08:20:18;16.03;;;10.57;;
545;SDS011;259;53.304;9.816;2024-02-28T08:22:45;11.70;;;9.37;;
545;SDS011;259;53.304;9.816;2024-02-28T08:25:11;10.87;;;8.43;;
545;SDS011;259;53.304;9.816;2024-02-28T08:27:38;13.27;;;9.07;;
545;SDS011;259;53.304;9.816;2024-02-28T08:30:04;10.57;;;8.13;;
545;SDS011;259;53.304;9.816;2024-02-28T08:32:33;9.13;;;7.37;;
545;SDS011;259;53.304;9.816;2024-02-28T08:34:59;7.83;;;7.00;;
545;SDS011;259;53.304;9.816;2024-02-28T08:37:26;7.40;;;6.77;;
545;SDS011;259;53.304;9.816;2024-02-28T08:39:53;11.30;;;7.03;;
545;SDS011;259;53.304;9.816;2024-02-28T08:42:22;6.80;;;6.10;;
545;SDS011;259;53.304;9.816;2024-02-28T08:44:51;8.37;;;7.20;;
545;SDS011;259;53.304;9.816;2024-02-28T08:47:23;8.00;;;6.83;;
545;SDS011;259;53.304;9.816;2024-02-28T08:49:49;7.80;;;6.70;;
545;SDS011;259;53.304;9.816;2024-02-28T08:52:16;6.57;;;5.87;;
545;SDS011;259;53.304;9.816;2024-02-28T08:54:41;5.87;;;5.40;;
545;SDS011;259;53.304;9.816;2024-02-28T08:57:07;6.23;;;5.63;;
545;SDS011;259;53.304;9.816;2024-02-28T08:59:33;6.90;;;5.80;;
545;SDS011;259;53.304;9.816;2024-02-28T09:01:58;5.93;;;5.33;;
545;SDS011;259;53.304;9.816;2024-02-28T09:04:24;6.80;;;5.60;;
545;SDS011;259;53.304;9.816;2024-02-28T09:06:50;5.77;;;5.27;;
545;SDS011;259;53.304;9.816;2024-02-28T09:09:18;5.17;;;4.50;;
545;SDS011;259;53.304;9.816;2024-02-28T09:11:44;5.37;;;4.87;;
545;SDS011;259;53.304;9.816;2024-02-28T09:14:09;4.90;;;4.57;;
545;SDS011;259;53.304;9.816;2024-02-28T09:16:35;4.40;;;4.10;;
545;SDS011;259;53.304;9.816;2024-02-28T09:19:02;4.77;;;4.37;;
545;SDS011;259;53.304;9.816;2024-02-28T09:21:29;4.60;;;4.20;;
545;SDS011;259;53.304;9.816;2024-02-28T09:23:55;4.33;;;4.00;;
545;SDS011;259;53.304;9.816;2024-02-28T09:26:21;4.30;;;4.00;;
545;SDS011;259;53.304;9.816;2024-02-28T09:28:49;3.90;;;3.60;;
545;SDS011;259;53.304;9.816;2024-02-28T09:31:15;4.13;;;3.73;;
545;SDS011;259;53.304;9.816;2024-02-28T09:33:40;4.47;;;4.10;;
545;SDS011;259;53.304;9.816;2024-02-28T09:36:06;4.50;;;4.20;;
545;SDS011;259;53.304;9.816;2024-02-28T09:38:32;4.17;;;3.87;;
545;SDS011;259;53.304;9.816;2024-02-28T09:40:59;3.60;;;3.37;;
545;SDS011;259;53.304;9.816;2024-02-28T09:43:29;4.00;;;3.67;;
545;SDS011;259;53.304;9.816;2024-02-28T09:46:00;3.70;;;3.47;;
545;SDS011;259;53.304;9.816;2024-02-28T09:48:29;3.50;;;3.30;;
545;SDS011;259;53.304;9.816;2024-02-28T09:51:02;4.97;;;3.77;;
545;SDS011;259;53.304;9.816;2024-02-28T09:53:28;4.10;;;3.77;;
545;SDS011;259;53.304;9.816;2024-02-28T09:55:54;4.00;;;3.70;;
545;SDS011;259;53.304;9.816;2024-02-28T09:58:20;4.30;;;4.00;;
545;SDS011;259;53.304;9.816;2024-02-28T10:00:46;4.17;;;3.87;;
545;SDS011;259;53.304;9.816;2024-02-28T10:03:13;3.83;;;3.50;;
545;SDS011;259;53.304;9.816;2024-02-28T10:05:46;3.90;;;3.60;;
545;SDS011;259;53.304;9.816;2024-02-28T10:08:12;4.40;;;4.00;;
545;SDS011;259;53.304;9.816;2024-02-28T10:10:44;3.50;;;3.20;;
545;SDS011;259;53.304;9.816;2024-02-28T10:13:12;3.57;;;3.37;;
545;SDS011;259;53.304;9.816;2024-02-28T10:15:38;2.77;;;2.67;;
545;SDS011;259;53.304;9.816;2024-02-28T10:18:04;4.03;;;3.73;;
545;SDS011;259;53.304;9.816;2024-02-28T10:20:30;4.20;;;3.90;;
545;SDS011;259;53.304;9.816;2024-02-28T10:22:56;4.17;;;3.80;;
545;SDS011;259;53.304;9.816;2024-02-28T10:25:22;3.80;;;3.23;;
545;SDS011;259;53.304;9.816;2024-02-28T10:27:48;3.80;;;3.50;;
545;SDS011;259;53.304;9.816;2024-02-28T10:30:14;3.67;;;3.43;;
545;SDS011;259;53.304;9.816;2024-02-28T10:32:50;3.73;;;3.50;;
545;SDS011;259;53.304;9.816;2024-02-28T10:35:16;4.37;;;4.07;;
545;SDS011;259;53.304;9.816;2024-02-28T10:37:44;3.63;;;3.40;;
545;SDS011;259;53.304;9.816;2024-02-28T10:40:12;4.03;;;3.70;;
545;SDS011;259;53.304;9.816;2024-02-28T10:42:39;4.73;;;4.30;;
545;SDS011;259;53.304;9.816;2024-02-28T10:45:11;14.37;;;6.77;;
545;SDS011;259;53.304;9.816;2024-02-28T10:47:38;17.70;;;6.80;;
545;SDS011;259;53.304;9.816;2024-02-28T10:50:04;20.17;;;8.10;;
545;SDS011;259;53.304;9.816;2024-02-28T10:52:32;12.50;;;6.20;;
545;SDS011;259;53.304;9.816;2024-02-28T10:54:59;63.55;;;44.10;;
545;SDS011;259;53.304;9.816;2024-02-28T10:57:27;44.70;;;23.90;;
545;SDS011;259;53.304;9.816;2024-02-28T10:59:55;27.87;;;21.47;;
545;SDS011;259;53.304;9.816;2024-02-28T11:02:24;32.17;;;21.37;;
545;SDS011;259;53.304;9.816;2024-02-28T11:04:51;30.50;;;20.93;;
545;SDS011;259;53.304;9.816;2024-02-28T11:07:20;38.70;;;20.60;;
545;SDS011;259;53.304;9.816;2024-02-28T11:09:46;23.90;;;17.10;;
545;SDS011;259;53.304;9.816;2024-02-28T11:12:23;21.67;;;15.10;;
545;SDS011;259;53.304;9.816;2024-02-28T11:14:59;23.77;;;14.47;;
545;SDS011;259;53.304;9.816;2024-02-28T11:17:29;18.33;;;12.37;;
545;SDS011;259;53.304;9.816;2024-02-28T11:19:56;18.90;;;13.10;;
545;SDS011;259;53.304;9.816;2024-02-28T11:22:21;12.83;;;11.60;;
545;SDS011;259;53.304;9.816;2024-02-28T11:24:48;16.70;;;10.20;;
545;SDS011;259;53.304;9.816;2024-02-28T11:27:15;10.83;;;9.70;;
545;SDS011;259;53.304;9.816;2024-02-28T11:29:41;10.60;;;9.03;;
545;SDS011;259;53.304;9.816;2024-02-28T11:32:10;11.10;;;8.70;;
545;SDS011;259;53.304;9.816;2024-02-28T11:34:36;11.03;;;8.73;;
545;SDS011;259;53.304;9.816;2024-02-28T11:37:05;21.80;;;8.47;;
545;SDS011;259;53.304;9.816;2024-02-28T11:39:31;15.77;;;8.57;;
545;SDS011;259;53.304;9.816;2024-02-28T11:42:14;14.97;;;8.20;;
545;SDS011;259;53.304;9.816;2024-02-28T11:44:41;13.90;;;7.13;;
545;SDS011;259;53.304;9.816;2024-02-28T11:47:11;17.77;;;7.93;;
545;SDS011;259;53.304;9.816;2024-02-28T11:49:37;17.40;;;7.73;;
545;SDS011;259;53.304;9.816;2024-02-28T11:52:04;21.23;;;7.53;;
545;SDS011;259;53.304;9.816;2024-02-28T11:54:30;34.03;;;8.80;;
545;SDS011;259;53.304;9.816;2024-02-28T11:56:56;17.27;;;6.57;;
545;SDS011;259;53.304;9.816;2024-02-28T11:59:22;26.27;;;8.57;;
545;SDS011;259;53.304;9.816;2024-02-28T12:01:48;20.30;;;7.00;;
545;SDS011;259;53.304;9.816;2024-02-28T12:04:15;25.77;;;6.43;;
545;SDS011;259;53.304;9.816;2024-02-28T12:06:41;17.50;;;5.40;;
545;SDS011;259;53.304;9.816;2024-02-28T12:09:08;15.03;;;5.00;;
545;SDS011;259;53.304;9.816;2024-02-28T12:11:37;11.53;;;4.77;;
545;SDS011;259;53.304;9.816;2024-02-28T12:14:03;12.87;;;4.10;;
545;SDS011;259;53.304;9.816;2024-02-28T12:16:33;13.70;;;5.60;;
545;SDS011;259;53.304;9.816;2024-02-28T12:19:03;13.13;;;4.93;;
545;SDS011;259;53.304;9.816;2024-02-28T12:21:32;9.83;;;4.20;;
545;SDS011;259;53.304;9.816;2024-02-28T12:23:58;9.33;;;4.10;;
545;SDS011;259;53.304;9.816;2024-02-28T12:26:24;7.17;;;4.07;;
545;SDS011;259;53.304;9.816;2024-02-28T12:28:50;6.73;;;4.43;;
545;SDS011;259;53.304;9.816;2024-02-28T12:31:15;8.20;;;3.27;;
545;SDS011;259;53.304;9.816;2024-02-28T12:33:41;4.40;;;3.50;;
545;SDS011;259;53.304;9.816;2024-02-28T12:36:07;4.63;;;3.37;;
545;SDS011;259;53.304;9.816;2024-02-28T12:38:33;6.60;;;3.47;;
545;SDS011;259;53.304;9.816;2024-02-28T12:40:58;9.90;;;4.00;;
545;SDS011;259;53.304;9.816;2024-02-28T12:43:24;4.23;;;3.20;;
545;SDS011;259;53.304;9.816;2024-02-28T12:45:52;3.97;;;3.27;;
545;SDS011;259;53.304;9.816;2024-02-28T12:48:18;6.50;;;3.23;;
545;SDS011;259;53.304;9.816;2024-02-28T12:50:44;4.70;;;3.00;;
545;SDS011;259;53.304;9.816;2024-02-28T12:53:09;8.00;;;4.00;;
545;SDS011;259;53.304;9.816;2024-02-28T12:55:35;10.50;;;3.70;;
545;SDS011;259;53.304;9.816;2024-02-28T12:58:01;11.43;;;5.37;;
545;SDS011;259;53.304;9.816;2024-02-28T13:00:29;10.87;;;6.77;;
545;SDS011;259;53.304;9.816;2024-02-28T13:02:55;5.50;;;4.93;;
545;SDS011;259;53.304;9.816;2024-02-28T13:05:21;6.77;;;4.93;;
545;SDS011;259;53.304;9.816;2024-02-28T13:07:46;13.60;;;4.60;;
545;SDS011;259;53.304;9.816;2024-02-28T13:10:12;4.53;;;4.13;;
545;SDS011;259;53.304;9.816;2024-02-28T13:12:38;5.90;;;3.87;;
545;SDS011;259;53.304;9.816;2024-02-28T13:15:04;4.50;;;4.07;;
545;SDS011;259;53.304;9.816;2024-02-28T13:17:31;5.83;;;3.40;;
545;SDS011;259;53.304;9.816;2024-02-28T13:19:57;6.63;;;4.00;;
545;SDS011;259;53.304;9.816;2024-02-28T13:22:22;5.83;;;2.90;;
545;SDS011;259;53.304;9.816;2024-02-28T13:24:48;4.90;;;3.53;;
545;SDS011;259;53.304;9.816;2024-02-28T13:27:14;7.00;;;3.83;;
545;SDS011;259;53.304;9.816;2024-02-28T13:29:39;4.53;;;3.40;;
545;SDS011;259;53.304;9.816;2024-02-28T13:32:05;4.43;;;3.50;;
545;SDS011;259;53.304;9.816;2024-02-28T13:34:31;4.60;;;3.07;;
545;SDS011;259;53.304;9.816;2024-02-28T13:36:57;3.27;;;2.97;;
545;SDS011;259;53.304;9.816;2024-02-28T13:39:23;2.80;;;2.60;;
545;SDS011;259;53.304;9.816;2024-02-28T13:41:52;6.27;;;3.67;;
545;SDS011;259;53.304;9.816;2024-02-28T13:44:18;3.93;;;3.63;;
545;SDS011;259;53.304;9.816;2024-02-28T13:46:46;3.73;;;3.20;;
545;SDS011;259;53.304;9.816;2024-02-28T13:49:15;4.27;;;3.60;;
545;SDS011;259;53.304;9.816;2024-02-28T13:51:42;3.60;;;3.30;;
545;SDS011;259;53.304;9.816;2024-02-28T13:54:08;3.33;;;2.90;;
545;SDS011;259;53.304;9.816;2024-02-28T13:56:33;3.60;;;3.30;;
545;SDS011;259;53.304;9.816;2024-02-28T13:58:59;3.67;;;3.23;;
545;SDS011;259;53.304;9.816;2024-02-28T14:01:25;2.73;;;2.53;;
545;SDS011;259;53.304;9.816;2024-02-28T14:03:51;4.07;;;3.40;;
545;SDS011;259;53.304;9.816;2024-02-28T14:06:16;3.07;;;2.87;;
545;SDS011;259;53.304;9.816;2024-02-28T14:08:42;3.07;;;2.47;;
545;SDS011;259;53.304;9.816;2024-02-28T14:11:08;3.87;;;2.80;;
545;SDS011;259;53.304;9.816;2024-02-28T14:13:34;3.63;;;3.17;;
545;SDS011;259;53.304;9.816;2024-02-28T14:15:59;3.10;;;2.90;;
545;SDS011;259;53.304;9.816;2024-02-28T14:18:25;3.50;;;2.70;;
545;SDS011;259;53.304;9.816;2024-02-28T14:20:51;3.23;;;2.97;;
545;SDS011;259;53.304;9.816;2024-02-28T14:23:17;4.27;;;3.37;;
545;SDS011;259;53.304;9.816;2024-02-28T14:25:43;3.20;;;2.70;;
545;SDS011;259;53.304;9.816;2024-02-28T14:28:09;3.57;;;2.53;;
545;SDS011;259;53.304;9.816;2024-02-28T14:30:34;3.27;;;3.00;;
545;SDS011;259;53.304;9.816;2024-02-28T14:33:00;3.40;;;3.10;;
545;SDS011;259;53.304;9.816;2024-02-28T14:35:26;3.43;;;3.13;;
545;SDS011;259;53.304;9.816;2024-02-28T14:37:51;4.27;;;2.57;;
545;SDS011;259;53.304;9.816;2024-02-28T14:40:17;3.90;;;2.63;;
545;SDS011;259;53.304;9.816;2024-02-28T14:42:43;3.43;;;3.17;;
545;SDS011;259;53.304;9.816;2024-02-28T14:45:12;2.97;;;2.73;;
545;SDS011;259;53.304;9.816;2024-02-28T14:47:42;3.30;;;3.00;;
545;SDS011;259;53.304;9.816;2024-02-28T14:50:09;3.17;;;2.97;;
545;SDS011;259;53.304;9.816;2024-02-28T14:52:39;3.73;;;3.03;;
545;SDS011;259;53.304;9.816;2024-02-28T14:55:08;4.27;;;3.30;;
545;SDS011;259;53.304;9.816;2024-02-28T14:57:35;3.33;;;2.80;;
545;SDS011;259;53.304;9.816;2024-02-28T15:00:02;7.97;;;3.97;;
545;SDS011;259;53.304;9.816;2024-02-28T15:02:33;3.70;;;3.27;;
545;SDS011;259;53.304;9.816;2024-02-28T15:05:00;7.80;;;4.20;;
545;SDS011;259;53.304;9.816;2024-02-28T15:07:30;7.43;;;3.70;;
545;SDS011;259;53.304;9.816;2024-02-28T15:09:55;3.57;;;3.27;;
545;SDS011;259;53.304;9.816;2024-02-28T15:12:25;4.40;;;3.53;;
545;SDS011;259;53.304;9.816;2024-02-28T15:14:53;3.47;;;2.83;;
545;SDS011;259;53.304;9.816;2024-02-28T15:17:19;3.53;;;3.17;;
545;SDS011;259;53.304;9.816;2024-02-28T15:19:45;3.27;;;2.93;;
545;SDS011;259;53.304;9.816;2024-02-28T15:22:11;2.73;;;2.53;;
545;SDS011;259;53.304;9.816;2024-02-28T15:24:37;3.07;;;2.87;;
545;SDS011;259;53.304;9.816;2024-02-28T15:27:04;5.50;;;3.60;;
545;SDS011;259;53.304;9.816;2024-02-28T15:29:31;3.20;;;3.00;;
545;SDS011;259;53.304;9.816;2024-02-28T15:31:57;2.80;;;2.60;;
545;SDS011;259;53.304;9.816;2024-02-28T15:34:23;4.17;;;3.00;;
545;SDS011;259;53.304;9.816;2024-02-28T15:36:49;2.90;;;2.70;;
545;SDS011;259;53.304;9.816;2024-02-28T15:39:15;3.70;;;3.30;;